createdAt,value
2022-09-13T00:04:15.904Z,21.20
2022-09-13T00:10:26.147Z,21.10
2022-09-13T00:13:01.421Z,21.00
2022-09-13T00:15:35.284Z,21.10
2022-09-13T00:21:06.673Z,21.10
2022-09-13T00:23:37.880Z,21.10
2022-09-13T00:26:43.667Z,21.10
2022-09-13T00:29:46.233Z,21.10
2022-09-13T00:32:23.985Z,21.10
2022-09-13T00:35:00.296Z,21.00
2022-09-13T00:40:28.181Z,21.00
2022-09-13T00:43:10.490Z,20.90
2022-09-13T00:45:42.836Z,20.80
2022-09-13T00:48:15.682Z,20.80
2022-09-13T00:57:35.458Z,20.80
2022-09-13T01:00:13.672Z,20.90
2022-09-13T01:03:15.613Z,20.80
2022-09-13T01:05:52.486Z,20.80
2022-09-13T01:08:27.103Z,20.70
2022-09-13T01:10:56.731Z,20.70
2022-09-13T01:21:04.680Z,20.60
2022-09-13T01:23:44.545Z,20.60
2022-09-13T01:26:30.191Z,20.60
2022-09-13T01:29:02.382Z,20.60
2022-09-13T01:31:34.136Z,20.60
2022-09-13T01:34:30.858Z,20.70
2022-09-13T01:37:07.020Z,20.60
2022-09-13T01:39:51.652Z,20.60
2022-09-13T01:42:53.187Z,20.60
2022-09-13T01:51:53.053Z,20.50
2022-09-13T01:54:43.981Z,20.50
2022-09-13T01:58:05.389Z,20.50
2022-09-13T02:01:07.163Z,20.40
2022-09-13T02:04:08.603Z,20.40
2022-09-13T02:06:46.099Z,20.40
2022-09-13T02:09:21.614Z,20.40
2022-09-13T02:14:56.550Z,20.40
2022-09-13T02:17:45.199Z,20.40
2022-09-13T02:23:49.533Z,20.50
2022-09-13T02:26:28.925Z,20.40
2022-09-13T02:29:05.618Z,20.40
2022-09-13T02:32:06.334Z,20.40
2022-09-13T02:34:42.966Z,20.30
2022-09-13T02:37:11.685Z,20.30
2022-09-13T02:39:49.044Z,20.30
2022-09-13T02:42:22.953Z,20.30
2022-09-13T02:44:57.306Z,20.40
2022-09-13T02:47:45.816Z,20.40
2022-09-13T02:50:44.176Z,20.30
2022-09-13T02:54:02.030Z,20.30
2022-09-13T03:00:28.586Z,20.40
2022-09-13T03:02:58.175Z,20.30
2022-09-13T03:08:25.523Z,20.30
2022-09-13T03:11:05.618Z,20.20
2022-09-13T03:13:55.971Z,20.30
2022-09-13T03:24:24.363Z,20.20
2022-09-13T03:33:45.288Z,20.20
2022-09-13T03:39:50.555Z,20.20
2022-09-13T03:43:02.632Z,20.10
2022-09-13T03:45:36.860Z,20.10
2022-09-13T03:48:08.116Z,20.10
2022-09-13T03:50:50.399Z,20.10
2022-09-13T03:53:22.435Z,20.10
2022-09-13T03:55:55.173Z,20.10
2022-09-13T03:58:22.865Z,20.10
2022-09-13T04:00:50.818Z,20.10
2022-09-13T04:03:46.445Z,20.10
2022-09-13T04:07:22.241Z,20.10
2022-09-13T04:09:41.497Z,20.10
2022-09-13T04:12:25.834Z,20.10
2022-09-13T04:15:28.966Z,20.00
2022-09-13T04:22:01.096Z,20.00
2022-09-13T04:25:25.509Z,20.00
2022-09-13T04:28:00.718Z,20.00
2022-09-13T04:31:23.993Z,20.00
2022-09-13T04:34:03.793Z,20.10
2022-09-13T04:36:49.850Z,20.00
2022-09-13T04:39:33.020Z,20.00
2022-09-13T04:42:41.250Z,19.90
2022-09-13T04:45:15.653Z,19.90
2022-09-13T04:50:47.025Z,19.90
2022-09-13T04:53:37.113Z,19.80
2022-09-13T04:57:38.780Z,19.80
2022-09-13T05:00:37.610Z,19.70
2022-09-13T05:03:20.667Z,19.70
2022-09-13T05:14:57.380Z,19.50
2022-09-13T05:17:30.877Z,19.40
2022-09-13T05:23:26.071Z,19.50
2022-09-13T05:29:16.364Z,19.40
2022-09-13T05:35:37.099Z,19.40
2022-09-13T05:38:06.228Z,19.50
2022-09-13T05:40:35.706Z,19.50
2022-09-13T05:46:26.645Z,19.50
2022-09-13T05:49:08.130Z,19.60
2022-09-13T05:58:17.589Z,19.70
2022-09-13T06:04:17.270Z,19.80
2022-09-13T06:10:37.280Z,19.90
2022-09-13T06:13:48.446Z,20.00
2022-09-13T06:20:27.476Z,20.10
2022-09-13T06:23:10.255Z,20.20
2022-09-13T06:26:01.516Z,20.20
2022-09-13T06:29:07.694Z,20.30
2022-09-13T06:31:35.111Z,20.40
2022-09-13T06:37:52.582Z,20.50
2022-09-13T06:43:57.773Z,20.50
2022-09-13T06:59:27.780Z,20.60
2022-09-13T07:08:33.633Z,20.80
2022-09-13T07:19:31.403Z,21.10
2022-09-13T07:21:58.504Z,21.20
2022-09-13T07:24:25.957Z,21.30
2022-09-13T07:26:55.059Z,21.30
2022-09-13T07:29:25.391Z,21.40
2022-09-13T07:31:54.244Z,21.50
2022-09-13T07:34:43.027Z,21.50
2022-09-13T07:37:18.468Z,21.60
2022-09-13T07:40:10.938Z,21.70
2022-09-13T07:42:53.463Z,21.80
2022-09-13T08:02:45.207Z,22.30
2022-09-13T08:05:17.649Z,22.30
2022-09-13T08:07:44.667Z,22.50
2022-09-13T08:12:59.388Z,22.50
2022-09-13T08:15:26.789Z,22.50
2022-09-13T08:17:54.871Z,22.60
2022-09-13T08:20:23.862Z,22.60
2022-09-13T08:22:50.741Z,22.70
2022-09-13T08:25:18.959Z,22.70
2022-09-13T08:27:46.079Z,22.80
2022-09-13T08:30:13.067Z,22.90
2022-09-13T08:32:39.976Z,23.00
2022-09-13T08:35:07.107Z,23.10
2022-09-13T08:37:34.466Z,23.20
2022-09-13T08:40:01.454Z,23.20
2022-09-13T08:42:28.287Z,23.40
2022-09-13T08:44:56.213Z,23.50
2022-09-13T08:47:32.263Z,23.70
2022-09-13T08:50:04.782Z,23.70
2022-09-13T08:52:46.144Z,23.80
2022-09-13T08:55:24.108Z,23.80
2022-09-13T08:58:14.642Z,24.00
2022-09-13T09:00:44.545Z,24.00
2022-09-13T09:03:19.709Z,24.10
2022-09-13T09:05:48.117Z,24.30
2022-09-13T09:08:14.866Z,24.40
2022-09-13T09:10:42.900Z,24.40
2022-09-13T09:13:13.548Z,24.50
2022-09-13T09:15:42.411Z,24.50
2022-09-13T09:18:09.534Z,24.60
2022-09-13T09:20:44.542Z,24.60
2022-09-13T09:23:19.076Z,24.70
2022-09-13T09:25:51.045Z,24.90
2022-09-13T09:28:18.804Z,24.90
2022-09-13T09:31:21.393Z,24.90
2022-09-13T09:33:48.422Z,25.00
2022-09-13T09:36:28.299Z,25.10
2022-09-13T09:38:56.196Z,25.20
2022-09-13T09:41:27.522Z,25.50
2022-09-13T09:44:13.658Z,25.60
2022-09-13T09:46:41.375Z,25.70
2022-09-13T09:49:36.177Z,25.80
2022-09-13T09:52:06.914Z,25.80
2022-09-13T09:54:35.084Z,25.70
2022-09-13T09:57:02.049Z,25.90
2022-09-13T09:59:32.516Z,25.90
2022-09-13T10:02:00.571Z,25.90
2022-09-13T10:04:28.100Z,26.00
2022-09-13T10:07:16.183Z,26.10
2022-09-13T10:10:22.149Z,26.10
2022-09-13T10:13:35.762Z,26.20
2022-09-13T10:26:59.611Z,26.70
2022-09-13T10:29:28.340Z,26.60
2022-09-13T10:31:57.862Z,26.50
2022-09-13T10:34:26.705Z,26.60
2022-09-13T10:36:56.198Z,26.60
2022-09-13T10:39:26.497Z,26.60
2022-09-13T14:01:20.988Z,30.20
2022-09-13T15:17:08.300Z,31.10
2022-09-13T15:19:41.315Z,31.40
2022-09-13T15:22:16.130Z,31.80
2022-09-13T15:24:47.682Z,32.40
2022-09-13T15:27:18.607Z,32.90
2022-09-13T15:29:49.555Z,33.30
2022-09-13T15:32:21.164Z,33.50
2022-09-13T15:34:51.262Z,33.80
2022-09-13T15:37:20.804Z,33.90
2022-09-13T15:40:02.097Z,34.30
2022-09-13T15:42:28.952Z,34.50
2022-09-13T15:44:59.596Z,34.50
2022-09-13T15:47:26.458Z,34.50
2022-09-13T15:49:53.984Z,34.40
2022-09-13T15:52:24.047Z,34.20
2022-09-13T15:54:51.674Z,33.60
2022-09-13T15:57:23.569Z,32.70
2022-09-13T15:59:51.036Z,31.80
2022-09-13T16:02:20.395Z,31.00
2022-09-13T16:04:49.065Z,30.20
2022-09-13T16:07:16.257Z,29.70
2022-09-13T16:10:09.214Z,29.20
2022-09-13T16:12:36.187Z,28.80
2022-09-13T16:18:01.807Z,28.20
2022-09-13T16:20:28.652Z,27.90
2022-09-13T16:22:57.830Z,27.70
2022-09-13T16:25:26.729Z,27.50
2022-09-13T16:27:55.376Z,27.50
2022-09-13T16:30:25.674Z,27.30
2022-09-13T16:32:52.782Z,27.20
2022-09-13T16:35:21.372Z,27.10
2022-09-13T16:37:53.404Z,27.00
2022-09-13T16:40:20.577Z,26.90
2022-09-13T16:42:48.277Z,26.80
2022-09-13T16:45:15.308Z,26.70
2022-09-13T16:47:42.521Z,26.70
2022-09-13T16:50:10.097Z,26.60
2022-09-13T16:52:39.732Z,26.50
2022-09-13T16:55:12.898Z,26.40
2022-09-13T16:57:55.253Z,26.30
2022-09-13T17:00:32.967Z,26.30
2022-09-13T17:03:06.008Z,26.10
2022-09-13T17:05:37.556Z,26.10
2022-09-13T17:08:07.299Z,26.00
2022-09-13T17:14:15.415Z,25.80
2022-09-13T17:16:54.260Z,25.70
2022-09-13T17:19:24.210Z,25.60
2022-09-13T17:21:53.626Z,25.60
2022-09-13T17:24:22.272Z,25.50
2022-09-13T17:27:10.400Z,25.40
2022-09-13T17:29:37.276Z,25.30
2022-09-13T17:32:06.050Z,25.20
2022-09-13T17:34:46.325Z,25.10
2022-09-13T17:43:14.301Z,24.90
2022-09-13T17:45:45.614Z,24.90
2022-09-13T17:48:16.012Z,24.80
2022-09-13T17:50:42.859Z,24.70
2022-09-13T17:53:13.134Z,24.70
2022-09-13T17:55:46.913Z,24.70
2022-09-13T17:58:16.142Z,24.60
2022-09-13T18:00:44.890Z,24.50
2022-09-13T18:03:14.104Z,24.60
2022-09-13T18:05:46.633Z,24.50
2022-09-13T18:15:17.955Z,24.40
2022-09-13T18:23:58.994Z,24.30
2022-09-13T18:30:10.148Z,24.30
2022-09-13T18:33:25.801Z,24.20
2022-09-13T18:36:06.350Z,24.20
2022-09-13T18:39:16.701Z,24.20
2022-09-13T18:45:21.968Z,24.10
2022-09-13T18:47:51.257Z,24.00
2022-09-13T18:50:20.071Z,24.10
2022-09-13T18:52:51.460Z,24.00
2022-09-13T18:55:19.256Z,23.90
2022-09-13T19:00:31.841Z,23.90
2022-09-13T19:03:57.227Z,23.90
2022-09-13T19:21:21.052Z,23.80
2022-09-13T19:24:06.536Z,23.80
2022-09-13T19:29:32.040Z,23.70
2022-09-13T19:35:38.022Z,23.70
2022-09-13T19:41:14.653Z,23.70
2022-09-13T19:43:42.272Z,23.70
2022-09-13T19:46:10.504Z,23.70
2022-09-13T19:51:39.708Z,23.70
2022-09-13T20:21:17.709Z,23.10
